Time;durP1;ratioP1;P1;durP2;ratioP2;P2;SDS_P1;SDS_P2;PMS_P1;PMS_P2;Temp;Humidity;BMP_temperature;BMP_pressure;BME280_temperature;BME280_humidity;BME280_pressure;Samples;Min_cycle;Max_cycle;Signal;HPM_P1;HPM_P2
2021/11/17 02:27:16;;;;;;;6.80;2.33;;;4.60;99.90;;;;;;6217394;23;20187;-85
2021/11/17 02:30:15;;;;;;;4.50;2.17;;;4.60;99.90;;;;;;6216634;23;20257;-84
2021/11/17 02:33:00;;;;;;;6.10;2.43;;;4.60;99.90;;;;;;6221314;23;20500;-85
2021/11/17 02:36:00;;;;;;;7.13;2.73;;;4.60;99.90;;;;;;6216911;23;20179;-85
2021/11/17 02:38:56;;;;;;;8.63;2.67;;;4.50;99.90;;;;;;6220739;23;20272;-86
2021/11/17 02:41:53;;;;;;;13.53;2.80;;;4.50;99.90;;;;;;6220551;23;20173;-85
2021/11/17 02:44:54;;;;;;;5.70;2.30;;;4.40;99.90;;;;;;6219412;23;20207;-85
2021/11/17 02:47:43;;;;;;;8.17;2.63;;;4.30;99.90;;;;;;6221621;23;20481;-86
2021/11/17 02:50:35;;;;;;;6.60;2.20;;;4.20;99.90;;;;;;6195879;23;20196;-85
2021/11/17 02:53:26;;;;;;;6.57;1.80;;;4.20;99.90;;;;;;6218419;23;20631;-85
2021/11/17 02:56:13;;;;;;;3.77;1.83;;;4.10;99.90;;;;;;6218297;23;20198;-85
2021/11/17 02:59:05;;;;;;;3.43;1.50;;;4.20;99.90;;;;;;6220127;23;20654;-86
2021/11/17 03:02:03;;;;;;;4.43;1.70;;;4.10;99.90;;;;;;6220584;23;20172;-85
2021/11/17 03:05:00;;;;;;;3.50;1.50;;;4.10;99.90;;;;;;6214302;23;20631;-85
2021/11/17 03:07:56;;;;;;;2.73;1.60;;;4.00;99.90;;;;;;6217865;23;20172;-84
2021/11/17 03:10:43;;;;;;;5.50;1.60;;;4.00;99.90;;;;;;6218904;23;20200;-84
2021/11/17 03:13:28;;;;;;;3.83;1.53;;;4.00;99.90;;;;;;6195840;23;20200;-85
2021/11/17 03:16:29;;;;;;;2.50;1.47;;;3.90;99.90;;;;;;6215191;23;20183;-85
2021/11/17 03:19:15;;;;;;;3.17;1.47;;;3.90;99.90;;;;;;6218256;23;20182;-84
2021/11/17 03:22:05;;;;;;;3.37;1.77;;;3.90;99.90;;;;;;6218179;23;20249;-85
2021/11/17 03:24:49;;;;;;;3.87;1.40;;;3.80;99.90;;;;;;6220038;23;20183;-84
2021/11/17 03:27:36;;;;;;;2.30;1.30;;;3.80;99.90;;;;;;6218702;23;20207;-85
2021/11/17 03:30:34;;;;;;;4.00;1.50;;;3.80;99.90;;;;;;6219392;23;20542;-86
2021/11/17 03:33:33;;;;;;;3.73;1.53;;;3.80;99.90;;;;;;6219031;23;20172;-84
2021/11/17 03:45:42;;;;;;;7.33;3.90;;;3.60;99.90;;;;;;6175304;23;20219;-87
2021/11/17 03:48:29;;;;;;;5.07;3.93;;;3.50;99.90;;;;;;6181037;23;20178;-86
2021/11/17 03:51:26;;;;;;;8.37;3.90;;;3.50;99.90;;;;;;6179267;23;20181;-84
2021/11/17 03:57:43;;;;;;;5.20;3.63;;;3.40;99.90;;;;;;6168998;23;20173;-85
2021/11/17 04:00:47;;;;;;;9.60;4.77;;;3.40;99.90;;;;;;6169677;23;20178;-87
2021/11/17 04:03:52;;;;;;;6.43;3.97;;;3.40;99.90;;;;;;6163981;23;20182;-86
2021/11/17 04:06:36;;;;;;;6.87;4.10;;;3.40;99.90;;;;;;6170394;23;20236;-86
2021/11/17 04:09:20;;;;;;;8.30;4.60;;;3.30;99.90;;;;;;6172755;23;20268;-85
2021/11/17 04:12:18;;;;;;;8.10;4.93;;;3.30;99.90;;;;;;6173511;23;20605;-86
2021/11/17 04:15:06;;;;;;;9.63;5.53;;;3.30;99.90;;;;;;6174092;23;20162;-84
2021/11/17 04:17:51;;;;;;;8.67;4.67;;;3.30;99.90;;;;;;6174303;23;20238;-85
2021/11/17 04:20:38;;;;;;;8.10;4.20;;;3.20;99.90;;;;;;6172264;23;20178;-86
2021/11/17 04:23:28;;;;;;;6.83;4.00;;;3.20;99.90;;;;;;6173541;23;20192;-85
2021/11/17 04:26:21;;;;;;;7.37;3.70;;;3.10;99.90;;;;;;6170927;23;20170;-86
2021/11/17 04:29:14;;;;;;;10.20;3.57;;;3.10;99.90;;;;;;6160032;23;20237;-85
2021/11/17 04:32:07;;;;;;;5.53;3.33;;;3.10;99.90;;;;;;6171429;23;20200;-87
2021/11/17 04:35:29;;;;;;;4.23;2.90;;;3.10;99.90;;;;;;6172214;23;20182;-86
2021/11/17 04:38:26;;;;;;;5.27;3.20;;;3.00;99.90;;;;;;6164901;23;20240;-85
2021/11/17 04:41:17;;;;;;;5.00;2.67;;;3.00;99.90;;;;;;6171221;23;20197;-86
2021/11/17 04:44:09;;;;;;;7.87;3.03;;;3.00;99.90;;;;;;6164701;23;20190;-86
2021/11/17 04:46:55;;;;;;;7.20;2.80;;;3.00;99.90;;;;;;6155462;23;20241;-86
2021/11/17 04:49:42;;;;;;;3.47;2.20;;;2.90;99.90;;;;;;6165858;23;20268;-86
2021/11/17 04:52:43;;;;;;;8.10;2.50;;;2.90;99.90;;;;;;6166857;23;20176;-86
2021/11/17 04:55:36;;;;;;;4.67;2.80;;;2.90;99.90;;;;;;6170880;23;20719;-86
2021/11/17 04:58:29;;;;;;;4.57;2.30;;;2.80;99.90;;;;;;6169919;23;20257;-86
2021/11/17 05:01:34;;;;;;;5.37;2.70;;;2.70;99.90;;;;;;6158916;23;20249;-86
2021/11/17 05:04:21;;;;;;;4.37;2.93;;;2.60;99.90;;;;;;6159209;23;20182;-86
2021/11/17 05:07:05;;;;;;;8.13;2.40;;;2.60;99.90;;;;;;6159532;23;20189;-86
2021/11/17 05:09:50;;;;;;;5.13;2.50;;;2.60;99.90;;;;;;6162228;23;20193;-86
2021/11/17 05:12:37;;;;;;;5.10;3.07;;;2.60;99.90;;;;;;6170038;23;20214;-86
2021/11/17 05:15:25;;;;;;;5.23;3.07;;;2.60;99.90;;;;;;6166840;23;20259;-87
2021/11/17 05:18:06;;;;;;;5.50;3.03;;;2.60;99.90;;;;;;6167673;23;20547;-87
2021/11/17 05:21:08;;;;;;;6.20;3.10;;;2.50;99.90;;;;;;6174259;23;20184;-87
2021/11/17 05:23:55;;;;;;;5.87;2.60;;;2.50;99.90;;;;;;6165251;23;20189;-86
2021/11/17 05:29:48;;;;;;;9.20;3.57;;;2.40;99.90;;;;;;6164700;23;20201;-86
2021/11/17 05:32:45;;;;;;;5.00;2.83;;;2.40;99.90;;;;;;6170515;23;20210;-85
2021/11/17 05:35:30;;;;;;;4.73;3.03;;;2.30;99.90;;;;;;6157280;23;20206;-86
2021/11/17 05:38:18;;;;;;;5.50;3.47;;;2.30;99.90;;;;;;6162796;23;20249;-86
2021/11/17 05:41:09;;;;;;;5.97;3.07;;;2.30;99.90;;;;;;6163305;23;20178;-86
2021/11/17 05:43:52;;;;;;;6.33;3.30;;;2.20;99.90;;;;;;6162928;23;20190;-88
2021/11/17 05:46:38;;;;;;;7.33;3.53;;;2.20;99.90;;;;;;6160989;23;20169;-86
2021/11/17 05:49:24;;;;;;;6.67;3.60;;;2.20;99.90;;;;;;6162818;23;20173;-87
2021/11/17 05:52:09;;;;;;;6.23;2.77;;;2.20;99.90;;;;;;6162263;23;20348;-87
2021/11/17 05:54:59;;;;;;;5.60;3.33;;;2.30;99.90;;;;;;6162787;23;20181;-86
2021/11/17 05:57:43;;;;;;;5.20;2.80;;;2.30;99.90;;;;;;6163020;23;20201;-86
2021/11/17 06:00:51;;;;;;;5.73;2.90;;;2.30;99.90;;;;;;6178045;23;20235;-87
2021/11/17 06:03:39;;;;;;;4.00;2.77;;;2.30;99.90;;;;;;6169947;23;20190;-85
2021/11/17 06:06:10;;;;;;;5.60;3.07;;;2.30;99.90;;;;;;6179481;23;20217;-85
2021/11/17 06:08:40;;;;;;;8.73;3.50;;;2.30;99.90;;;;;;6182118;23;20225;-87
2021/11/17 06:11:14;;;;;;;4.80;2.67;;;2.20;99.90;;;;;;6167214;23;20201;-87
2021/11/17 06:13:55;;;;;;;6.57;3.13;;;2.30;99.90;;;;;;6164245;23;20269;-87
2021/11/17 06:16:30;;;;;;;7.43;2.70;;;2.20;99.90;;;;;;6163164;23;20229;-88
2021/11/17 06:19:05;;;;;;;8.17;3.03;;;2.20;99.90;;;;;;6164064;23;20200;-87
2021/11/17 06:21:42;;;;;;;6.73;2.77;;;2.10;99.90;;;;;;6165472;23;20650;-88
2021/11/17 06:24:17;;;;;;;5.37;3.07;;;2.00;99.90;;;;;;6165320;23;20225;-87
2021/11/17 06:26:52;;;;;;;6.73;3.57;;;2.00;99.90;;;;;;6161582;23;20182;-87
2021/11/17 06:29:33;;;;;;;7.17;3.17;;;2.00;99.90;;;;;;6169359;23;20161;-86
2021/11/17 06:32:06;;;;;;;6.60;3.13;;;1.90;99.90;;;;;;6175347;23;20298;-87
2021/11/17 06:34:41;;;;;;;5.70;3.13;;;1.90;99.90;;;;;;6174858;23;20264;-87
2021/11/17 06:37:14;;;;;;;5.20;2.80;;;1.80;99.90;;;;;;6172984;23;20232;-87
2021/11/17 06:39:49;;;;;;;5.93;2.87;;;1.80;99.90;;;;;;6174596;23;20204;-86
2021/11/17 06:42:29;;;;;;;5.80;2.70;;;1.80;99.90;;;;;;6162031;23;20504;-87
2021/11/17 06:45:02;;;;;;;7.07;2.83;;;1.80;99.90;;;;;;6189539;22;20224;-86
2021/11/17 06:47:34;;;;;;;5.47;3.10;;;1.80;99.90;;;;;;6191053;23;20492;-88
2021/11/17 06:50:08;;;;;;;4.57;2.93;;;1.70;99.90;;;;;;6191267;23;20181;-87
2021/11/17 06:52:41;;;;;;;8.20;2.80;;;1.70;99.90;;;;;;6192668;23;20189;-87
2021/11/17 06:55:14;;;;;;;7.67;4.20;;;1.70;99.90;;;;;;6171155;23;20188;-87
2021/11/17 06:57:49;;;;;;;3.70;3.00;;;1.70;99.90;;;;;;6197310;23;20640;-86
2021/11/17 07:00:23;;;;;;;5.03;3.40;;;1.60;99.90;;;;;;6192112;23;20231;-87
2021/11/17 07:02:56;;;;;;;5.93;3.37;;;1.60;99.90;;;;;;6193436;23;20247;-87
2021/11/17 07:05:30;;;;;;;5.80;3.33;;;1.60;99.90;;;;;;6165257;23;20180;-87
2021/11/17 07:08:03;;;;;;;8.97;3.40;;;1.60;99.90;;;;;;6192347;23;20473;-85
2021/11/17 07:10:39;;;;;;;4.43;3.00;;;1.60;99.90;;;;;;6193088;23;20272;-87
2021/11/17 07:13:16;;;;;;;4.20;2.40;;;1.60;99.90;;;;;;6193682;23;20224;-88
2021/11/17 07:15:48;;;;;;;3.60;2.33;;;1.50;99.90;;;;;;6198575;23;20693;-87
2021/11/17 07:18:21;;;;;;;6.40;2.43;;;1.50;99.90;;;;;;6202926;23;20174;-86
2021/11/17 07:20:53;;;;;;;3.77;2.50;;;1.50;99.90;;;;;;6193806;23;20608;-87
2021/11/17 07:23:24;;;;;;;6.40;2.60;;;1.50;99.90;;;;;;6190020;23;20639;-87
2021/11/17 07:25:56;;;;;;;5.63;2.70;;;1.50;99.90;;;;;;6188980;23;20260;-85
2021/11/17 07:28:30;;;;;;;3.23;2.17;;;1.40;99.90;;;;;;6188617;23;20177;-86
2021/11/17 07:31:01;;;;;;;4.53;1.93;;;1.40;99.90;;;;;;6189288;23;20205;-87
2021/11/17 07:33:33;;;;;;;7.17;2.90;;;1.40;99.90;;;;;;6188833;23;20207;-87
2021/11/17 07:36:05;;;;;;;6.77;2.60;;;1.30;99.90;;;;;;6188443;23;20624;-87
2021/11/17 07:38:36;;;;;;;3.67;2.20;;;1.30;99.90;;;;;;6189753;23;20166;-87
2021/11/17 07:41:08;;;;;;;6.13;2.50;;;1.30;99.90;;;;;;6189523;23;20165;-86
2021/11/17 07:43:42;;;;;;;3.47;2.20;;;1.30;99.90;;;;;;6188944;23;20185;-86
2021/11/17 07:46:14;;;;;;;3.77;2.43;;;1.30;99.90;;;;;;6187344;23;20200;-87
2021/11/17 07:48:45;;;;;;;4.40;2.27;;;1.30;99.90;;;;;;6188505;23;20180;-86
2021/11/17 07:51:18;;;;;;;2.97;1.80;;;1.20;99.90;;;;;;6188746;23;20197;-87
2021/11/17 07:53:49;;;;;;;3.77;1.90;;;1.20;99.90;;;;;;6189777;23;20184;-86
2021/11/17 07:56:21;;;;;;;4.00;2.07;;;1.20;99.90;;;;;;6187885;23;20180;-86
2021/11/17 07:58:54;;;;;;;2.73;1.97;;;1.20;99.90;;;;;;6188712;23;20177;-86
2021/11/17 08:01:26;;;;;;;2.90;1.63;;;1.10;99.90;;;;;;6189112;23;20555;-87
2021/11/17 08:03:58;;;;;;;4.07;1.90;;;1.10;99.90;;;;;;6188823;23;20256;-88
2021/11/17 08:06:30;;;;;;;2.30;1.60;;;1.10;99.90;;;;;;6188396;23;20260;-87
2021/11/17 08:09:03;;;;;;;4.67;1.90;;;1.10;99.90;;;;;;6189131;23;20187;-87
2021/11/17 08:11:35;;;;;;;5.43;1.73;;;1.10;99.90;;;;;;6165461;23;20198;-87
2021/11/17 08:14:09;;;;;;;4.57;1.67;;;1.10;99.90;;;;;;6189645;23;20514;-88
2021/11/17 08:16:42;;;;;;;4.10;2.00;;;1.10;99.90;;;;;;6188504;23;20491;-87
2021/11/17 08:19:14;;;;;;;3.10;1.80;;;1.10;99.90;;;;;;6190496;23;20656;-88
2021/11/17 08:21:46;;;;;;;3.77;2.10;;;1.10;99.90;;;;;;6181040;23;20169;-88
2021/11/17 08:24:18;;;;;;;4.37;2.27;;;1.10;99.90;;;;;;6184035;23;20212;-87
2021/11/17 08:26:52;;;;;;;3.60;2.17;;;1.00;99.90;;;;;;6200687;23;20180;-88
2021/11/17 08:29:27;;;;;;;3.33;1.70;;;1.00;99.90;;;;;;6189556;23;20179;-87
2021/11/17 08:32:00;;;;;;;2.70;2.03;;;1.00;99.90;;;;;;6188958;23;20193;-88
2021/11/17 08:34:32;;;;;;;4.03;1.80;;;1.00;99.90;;;;;;6188086;23;20279;-88
2021/11/17 08:37:03;;;;;;;3.87;2.00;;;1.00;99.90;;;;;;6187504;23;20271;-87
2021/11/17 08:39:35;;;;;;;3.13;2.07;;;1.00;99.90;;;;;;6188729;23;20165;-88
2021/11/17 08:42:07;;;;;;;3.80;1.87;;;1.00;99.90;;;;;;6190514;23;20191;-87
2021/11/17 08:44:42;;;;;;;3.50;1.60;;;1.00;99.90;;;;;;6190764;23;20628;-87
2021/11/17 08:47:16;;;;;;;3.50;1.57;;;1.00;99.90;;;;;;6188059;23;20175;-87
2021/11/17 08:49:48;;;;;;;3.73;1.90;;;1.00;99.90;;;;;;6189188;23;20246;-87
2021/11/17 08:52:20;;;;;;;4.57;1.87;;;1.00;99.90;;;;;;6189280;23;20229;-88
2021/11/17 08:54:53;;;;;;;4.60;1.83;;;0.90;99.90;;;;;;6189002;23;20173;-87
2021/11/17 08:57:24;;;;;;;3.30;1.80;;;0.90;99.90;;;;;;6188045;23;20169;-88
2021/11/17 09:00:00;;;;;;;4.20;1.77;;;0.90;99.90;;;;;;6189166;23;20281;-87
2021/11/17 09:02:31;;;;;;;3.60;1.50;;;0.90;99.90;;;;;;6189448;23;20179;-87
2021/11/17 09:05:03;;;;;;;2.80;1.83;;;0.80;99.90;;;;;;6188908;23;20667;-91
2021/11/17 09:07:35;;;;;;;2.17;1.60;;;0.90;99.90;;;;;;6189345;23;20172;-87
2021/11/17 09:10:07;;;;;;;2.57;1.37;;;0.90;99.90;;;;;;6190941;23;20247;-88
2021/11/17 09:12:39;;;;;;;2.33;1.50;;;0.90;99.90;;;;;;6191915;23;20201;-88
2021/11/17 09:15:14;;;;;;;5.37;1.53;;;0.90;99.90;;;;;;6187828;23;20351;-88
2021/11/17 09:17:46;;;;;;;4.17;1.53;;;0.90;99.90;;;;;;6189858;23;20179;-87
2021/11/17 09:20:19;;;;;;;2.23;1.50;;;0.90;99.90;;;;;;6188228;23;20184;-88
2021/11/17 09:22:52;;;;;;;3.97;1.83;;;0.90;99.90;;;;;;6189086;23;20170;-87
2021/11/17 09:25:26;;;;;;;3.50;1.47;;;1.00;99.90;;;;;;6187135;23;20169;-87
2021/11/17 09:27:58;;;;;;;2.47;1.40;;;1.00;99.90;;;;;;6188548;23;20213;-87
2021/11/17 09:30:34;;;;;;;2.23;1.30;;;1.00;99.90;;;;;;6189348;23;20184;-88
2021/11/17 09:33:07;;;;;;;4.30;1.30;;;1.00;99.90;;;;;;6188836;23;20223;-87
2021/11/17 09:35:40;;;;;;;1.33;1.13;;;1.00;99.90;;;;;;6187380;23;20249;-84
2021/11/17 09:38:14;;;;;;;2.30;1.17;;;0.90;99.90;;;;;;6188856;23;20229;-87
2021/11/17 09:40:48;;;;;;;2.80;1.10;;;0.90;99.90;;;;;;6188342;23;20172;-87
2021/11/17 09:43:23;;;;;;;1.73;1.00;;;0.80;99.90;;;;;;6192872;23;20183;-88
2021/11/17 09:45:58;;;;;;;2.17;0.80;;;0.90;99.90;;;;;;6187714;23;20188;-87
2021/11/17 09:48:34;;;;;;;4.63;1.00;;;0.90;99.90;;;;;;6189901;23;20168;-86
2021/11/17 09:51:13;;;;;;;1.10;0.80;;;0.90;99.90;;;;;;6187717;23;20165;-86
2021/11/17 09:53:51;;;;;;;2.63;0.97;;;0.90;99.90;;;;;;6190938;23;20671;-87
2021/11/17 09:56:26;;;;;;;4.70;1.23;;;0.80;99.90;;;;;;6192771;23;20180;-87
2021/11/17 09:59:01;;;;;;;1.73;0.80;;;0.80;99.90;;;;;;6189645;23;20209;-87
2021/11/17 10:01:42;;;;;;;1.97;1.00;;;0.80;99.90;;;;;;6165375;23;20177;-87
2021/11/17 10:04:21;;;;;;;2.20;1.50;;;0.80;99.90;;;;;;6190104;23;20496;-86
2021/11/17 10:12:56;;;;;;;3.87;2.00;;;0.80;99.90;;;;;;6189110;23;20211;-87
2021/11/17 10:15:30;;;;;;;3.53;2.00;;;0.80;99.90;;;;;;6188137;23;20172;-88
2021/11/17 10:18:25;;;;;;;2.57;1.80;;;0.80;99.90;;;;;;6189426;23;20251;-89
2021/11/17 10:21:04;;;;;;;3.03;1.70;;;0.70;99.90;;;;;;6163844;23;20180;-88
2021/11/17 10:23:38;;;;;;;3.60;1.70;;;0.70;99.90;;;;;;6190046;23;20187;-87
2021/11/17 10:26:14;;;;;;;3.30;1.60;;;0.70;99.90;;;;;;6189250;23;20238;-88
2021/11/17 10:28:51;;;;;;;3.53;1.43;;;0.60;99.90;;;;;;6192037;23;20163;-87
2021/11/17 10:31:25;;;;;;;1.13;0.83;;;0.60;99.90;;;;;;6190488;23;20512;-88
2021/11/17 10:34:09;;;;;;;3.23;1.20;;;0.50;99.90;;;;;;6190467;23;20202;-88
2021/11/17 10:36:52;;;;;;;3.07;1.23;;;0.50;99.90;;;;;;6194909;23;20165;-87
2021/11/17 10:39:27;;;;;;;4.33;2.43;;;0.40;99.90;;;;;;6186285;23;20180;-87
2021/11/17 10:42:05;;;;;;;3.90;2.50;;;0.40;99.90;;;;;;6210499;23;20241;-89
2021/11/17 10:44:45;;;;;;;3.53;1.73;;;0.30;99.90;;;;;;6191840;23;20232;-87
2021/11/17 10:47:23;;;;;;;1.80;1.10;;;0.30;99.90;;;;;;6188357;23;20460;-87
2021/11/17 10:50:09;;;;;;;1.33;0.80;;;0.30;99.90;;;;;;6188943;23;20188;-88
2021/11/17 10:52:47;;;;;;;1.70;1.07;;;0.20;99.90;;;;;;6189609;23;20197;-88
2021/11/17 10:55:22;;;;;;;3.07;0.80;;;0.30;99.90;;;;;;6187894;23;20180;-88
2021/11/17 10:57:54;;;;;;;2.33;0.93;;;0.30;99.90;;;;;;6188618;23;20172;-88
2021/11/17 11:00:30;;;;;;;4.03;1.00;;;0.30;99.90;;;;;;6188872;23;20183;-88
2021/11/17 11:03:03;;;;;;;1.50;1.20;;;0.30;99.90;;;;;;6164432;23;20223;-89
2021/11/17 11:05:40;;;;;;;0.97;0.77;;;0.20;99.90;;;;;;6188136;23;20213;-88
2021/11/17 11:08:33;;;;;;;1.10;1.00;;;0.20;99.90;;;;;;6189253;23;20197;-89
2021/11/17 11:11:07;;;;;;;1.83;0.90;;;0.20;99.90;;;;;;6188318;23;20183;-86
2021/11/17 11:13:43;;;;;;;1.37;0.97;;;0.20;99.90;;;;;;6188176;23;20273;-86
2021/11/17 11:16:18;;;;;;;1.00;0.83;;;0.20;99.90;;;;;;6187881;23;20267;-88
2021/11/17 11:18:58;;;;;;;1.17;0.90;;;0.10;99.90;;;;;;6220446;22;20241;-87
2021/11/17 11:22:04;;;;;;;2.07;1.23;;;0.10;99.90;;;;;;6223679;23;20181;-88
2021/11/17 11:24:38;;;;;;;2.40;1.07;;;0.00;99.90;;;;;;6249627;23;20261;-88
2021/11/17 11:27:26;;;;;;;1.40;1.10;;;0.10;99.90;;;;;;6253322;23;20200;-88
2021/11/17 11:30:42;;;;;;;1.13;0.83;;;0.10;99.90;;;;;;6249681;23;20174;-88
2021/11/17 11:33:28;;;;;;;1.00;0.90;;;0.10;99.90;;;;;;6250176;23;20651;-88
2021/11/17 11:36:31;;;;;;;1.93;1.40;;;0.00;99.90;;;;;;6249551;23;20183;-88
2021/11/17 11:39:31;;;;;;;1.93;0.90;;;0.00;99.90;;;;;;6250164;23;20248;-89
2021/11/17 11:42:38;;;;;;;1.40;1.00;;;0.00;99.90;;;;;;6252197;23;20594;-88
2021/11/17 11:45:40;;;;;;;2.33;0.80;;;-0.10;99.90;;;;;;6256516;23;20178;-88
2021/11/17 11:48:14;;;;;;;1.37;1.03;;;-0.10;99.90;;;;;;6250408;23;20189;-88
2021/11/17 11:50:59;;;;;;;1.50;0.90;;;-0.10;99.90;;;;;;6250085;23;20175;-89
2021/11/17 11:54:03;;;;;;;1.17;0.80;;;-0.10;99.90;;;;;;6250070;23;20233;-87
2021/11/17 11:56:53;;;;;;;1.40;0.90;;;-0.10;99.90;;;;;;6246197;23;20297;-89
2021/11/17 11:59:28;;;;;;;2.43;0.87;;;-0.10;99.90;;;;;;6250286;23;20180;-88
2021/11/17 12:02:11;;;;;;;1.27;0.90;;;-0.10;99.90;;;;;;6223765;23;20187;-87
2021/11/17 12:04:47;;;;;;;1.50;1.10;;;-0.10;99.90;;;;;;6251290;23;20182;-89
2021/11/17 12:07:28;;;;;;;1.70;0.90;;;-0.20;99.90;;;;;;6250280;23;20170;-88
2021/11/17 12:10:22;;;;;;;0.73;0.73;;;-0.20;99.90;;;;;;6251038;23;20201;-88
2021/11/17 12:12:57;;;;;;;2.70;1.00;;;-0.20;99.90;;;;;;6250821;23;20301;-87
2021/11/17 12:15:33;;;;;;;3.23;0.97;;;-0.20;99.90;;;;;;6252488;23;20222;-88
2021/11/17 12:18:18;;;;;;;1.77;1.00;;;-0.20;99.90;;;;;;6251696;23;20189;-86
2021/11/17 12:21:07;;;;;;;1.20;1.10;;;-0.20;99.90;;;;;;6256802;23;20187;-88
2021/11/17 12:23:42;;;;;;;1.77;1.00;;;-0.30;99.90;;;;;;6267481;22;20209;-89
2021/11/17 12:26:20;;;;;;;2.40;1.30;;;-0.30;99.90;;;;;;6269348;22;20181;-88
2021/11/17 12:29:00;;;;;;;1.50;0.90;;;-0.30;99.90;;;;;;6265414;23;20178;-89
2021/11/17 12:31:35;;;;;;;3.63;1.33;;;-0.30;99.90;;;;;;6266860;23;20181;-88
2021/11/17 12:34:18;;;;;;;1.07;0.97;;;-0.20;99.90;;;;;;6269506;22;20197;-88
2021/11/17 12:36:58;;;;;;;1.53;1.20;;;-0.20;99.90;;;;;;6181039;23;20178;-89
2021/11/17 12:39:32;;;;;;;1.87;1.10;;;-0.20;99.90;;;;;;6181611;23;20162;-89
2021/11/17 12:42:08;;;;;;;3.93;1.30;;;-0.30;99.90;;;;;;6182246;23;20244;-88
2021/11/17 12:44:49;;;;;;;1.97;0.93;;;-0.30;99.90;;;;;;6181434;23;20208;-89
2021/11/17 12:47:23;;;;;;;2.13;1.17;;;-0.20;99.90;;;;;;6180884;23;20218;-88
2021/11/17 12:50:12;;;;;;;1.73;1.10;;;-0.30;99.90;;;;;;6180427;23;20156;-85
2021/11/17 12:52:46;;;;;;;2.70;0.90;;;-0.30;99.90;;;;;;6177887;23;20188;-89
2021/11/17 12:55:22;;;;;;;2.53;1.20;;;-0.30;99.90;;;;;;6176651;23;20187;-89
2021/11/17 12:57:57;;;;;;;2.27;1.50;;;-0.30;99.90;;;;;;6171262;23;20194;-88
2021/11/17 13:00:44;;;;;;;2.70;1.50;;;-0.30;99.90;;;;;;6168646;23;20592;-87
2021/11/17 13:03:28;;;;;;;2.90;1.53;;;-0.30;99.90;;;;;;6167516;23;20191;-86
2021/11/17 13:06:10;;;;;;;1.40;1.20;;;-0.30;99.90;;;;;;6166681;23;20204;-89
2021/11/17 13:08:42;;;;;;;1.70;1.40;;;-0.30;99.90;;;;;;6142247;23;20165;-88
2021/11/17 13:11:18;;;;;;;3.10;1.90;;;-0.30;99.90;;;;;;6162755;23;20199;-88
2021/11/17 13:13:55;;;;;;;1.47;1.27;;;-0.30;99.90;;;;;;6166960;23;20213;-86
2021/11/17 13:16:36;;;;;;;2.30;1.50;;;-0.30;99.90;;;;;;6161985;23;20181;-88
2021/11/17 13:19:21;;;;;;;1.67;1.20;;;-0.30;99.90;;;;;;6161676;23;20207;-89
2021/11/17 13:21:57;;;;;;;1.73;1.20;;;-0.30;99.90;;;;;;6161134;23;20237;-88
2021/11/17 13:24:41;;;;;;;1.17;1.07;;;-0.30;99.90;;;;;;6162002;23;20173;-88
2021/11/17 13:27:23;;;;;;;1.53;1.20;;;-0.30;99.90;;;;;;6160654;23;20181;-88
2021/11/17 13:29:57;;;;;;;2.37;0.90;;;-0.30;99.90;;;;;;6163745;23;20249;-88
2021/11/17 13:32:38;;;;;;;2.30;1.07;;;-0.20;99.90;;;;;;6163688;23;20175;-88
2021/11/17 13:35:30;;;;;;;1.90;0.93;;;-0.20;99.90;;;;;;6161977;23;20208;-94
2021/11/17 13:38:15;;;;;;;1.73;1.13;;;-0.20;99.90;;;;;;6162500;23;20175;-89
2021/11/17 13:40:48;;;;;;;1.00;0.90;;;-0.10;99.90;;;;;;6165570;23;20200;-89
2021/11/17 13:43:21;;;;;;;2.50;0.83;;;-0.10;99.90;;;;;;6163952;23;20212;-87
2021/11/17 13:45:55;;;;;;;1.60;0.63;;;-0.20;99.90;;;;;;6160379;23;20199;-88
2021/11/17 13:48:33;;;;;;;1.23;0.90;;;-0.20;99.90;;;;;;6165126;23;20181;-89
2021/11/17 13:51:08;;;;;;;2.50;0.80;;;-0.20;99.90;;;;;;6162504;23;20515;-88
2021/11/17 13:53:40;;;;;;;1.93;0.90;;;-0.20;99.90;;;;;;6162553;23;20180;-88
2021/11/17 13:56:13;;;;;;;0.80;0.80;;;-0.20;99.90;;;;;;6162049;23;20330;-88
2021/11/17 13:58:45;;;;;;;0.90;0.77;;;-0.30;99.90;;;;;;6161163;23;20174;-88
2021/11/17 14:01:18;;;;;;;1.10;0.97;;;-0.30;99.90;;;;;;6162676;23;20182;-88
2021/11/17 14:03:52;;;;;;;2.27;0.90;;;-0.30;99.90;;;;;;6163160;23;20232;-88
2021/11/17 14:06:25;;;;;;;1.33;0.90;;;-0.20;99.90;;;;;;6164624;23;20179;-88
2021/11/17 14:08:57;;;;;;;1.27;0.80;;;-0.30;99.90;;;;;;6161481;23;20180;-88
2021/11/17 14:11:31;;;;;;;1.20;0.97;;;-0.30;99.90;;;;;;6161680;23;20179;-88
2021/11/17 14:14:03;;;;;;;2.37;1.20;;;-0.30;99.90;;;;;;6161235;23;20201;-89
2021/11/17 14:16:35;;;;;;;1.30;1.00;;;-0.30;99.90;;;;;;6162331;23;20179;-88
2021/11/17 14:19:09;;;;;;;1.60;1.10;;;-0.30;99.90;;;;;;6161256;23;20204;-88
2021/11/17 14:21:42;;;;;;;1.37;0.90;;;-0.30;99.90;;;;;;6137527;23;20183;-89
2021/11/17 14:24:14;;;;;;;1.03;0.80;;;-0.30;99.90;;;;;;6162360;23;20595;-88
2021/11/17 14:26:48;;;;;;;1.20;0.90;;;-0.30;99.90;;;;;;6160630;23;20249;-88
2021/11/17 14:29:24;;;;;;;0.70;0.70;;;-0.30;99.90;;;;;;6161702;23;20208;-87
2021/11/17 14:31:58;;;;;;;0.93;0.80;;;-0.30;99.90;;;;;;6161613;23;20168;-89
2021/11/17 14:34:32;;;;;;;1.20;0.80;;;-0.30;99.90;;;;;;6160974;23;20283;-88
2021/11/17 14:37:05;;;;;;;1.50;0.67;;;-0.30;99.90;;;;;;6159313;23;20196;-88
2021/11/17 14:39:39;;;;;;;0.80;0.80;;;-0.30;99.90;;;;;;6162339;23;20181;-90
2021/11/17 14:42:13;;;;;;;2.97;0.80;;;-0.40;99.90;;;;;;6160075;23;20177;-88
2021/11/17 14:44:46;;;;;;;0.90;0.73;;;-0.40;99.90;;;;;;6161037;23;20215;-88
2021/11/17 14:47:19;;;;;;;3.27;0.63;;;-0.40;99.90;;;;;;6159870;23;20566;-88
2021/11/17 14:49:54;;;;;;;0.70;0.60;;;-0.40;99.90;;;;;;6160232;23;20235;-88
2021/11/17 14:52:26;;;;;;;1.20;0.97;;;-0.40;99.90;;;;;;6160663;23;20504;-90
2021/11/17 14:54:58;;;;;;;0.90;0.60;;;-0.40;99.90;;;;;;6160796;23;20207;-87
2021/11/17 14:57:30;;;;;;;0.67;0.60;;;-0.40;99.90;;;;;;6134771;23;20200;-87
2021/11/17 15:00:01;;;;;;;0.60;0.60;;;-0.40;99.90;;;;;;6136351;23;20181;-86
2021/11/17 15:02:33;;;;;;;4.73;0.80;;;-0.30;99.90;;;;;;6161573;23;20180;-88
2021/11/17 15:05:09;;;;;;;2.23;0.93;;;-0.30;99.90;;;;;;6162166;23;20199;-90
2021/11/17 15:07:41;;;;;;;0.97;0.60;;;-0.20;99.90;;;;;;6161702;23;20174;-88
2021/11/17 15:10:15;;;;;;;0.60;0.60;;;-0.20;99.90;;;;;;6160564;23;20176;-88
2021/11/17 15:12:51;;;;;;;0.73;0.70;;;-0.20;99.90;;;;;;6161671;23;20964;-87
2021/11/17 15:18:26;;;;;;;1.70;0.60;;;-0.20;99.90;;;;;;6178942;23;20274;-87
2021/11/17 15:21:00;;;;;;;1.83;0.67;;;-0.30;99.90;;;;;;6181034;23;20186;-88
2021/11/17 15:23:32;;;;;;;0.80;0.50;;;-0.30;99.90;;;;;;6176185;23;20174;-88
2021/11/17 15:26:05;;;;;;;3.23;0.73;;;-0.30;99.90;;;;;;6159598;23;20256;-86
2021/11/17 15:28:39;;;;;;;1.50;0.77;;;-0.20;99.90;;;;;;6160688;23;20201;-87
2021/11/17 15:31:15;;;;;;;0.90;0.70;;;-0.20;99.90;;;;;;6159937;23;20508;-88
2021/11/17 15:33:47;;;;;;;1.63;0.83;;;-0.30;99.90;;;;;;6159891;23;20508;-88
2021/11/17 15:36:27;;;;;;;1.10;0.60;;;-0.20;99.90;;;;;;6169803;23;20656;-88
2021/11/17 15:39:00;;;;;;;0.60;0.60;;;-0.10;99.90;;;;;;6160721;23;20248;-88
2021/11/17 15:41:32;;;;;;;0.97;0.60;;;-0.10;99.90;;;;;;6164997;23;20189;-89
2021/11/17 15:44:03;;;;;;;2.20;0.63;;;-0.10;99.90;;;;;;6162472;23;20274;-88
2021/11/17 15:46:37;;;;;;;0.97;0.83;;;0.00;99.90;;;;;;6165068;23;20185;-89
2021/11/17 15:49:09;;;;;;;2.07;0.90;;;0.00;99.90;;;;;;6167700;23;20249;-89
2021/11/17 15:51:47;;;;;;;0.77;0.50;;;0.10;99.90;;;;;;6173505;23;20180;-88
2021/11/17 15:54:25;;;;;;;0.53;0.53;;;0.10;99.90;;;;;;6173937;23;20208;-87
2021/11/17 15:59:45;;;;;;;1.00;0.60;;;0.20;99.90;;;;;;6173750;23;20180;-87
2021/11/17 16:02:23;;;;;;;1.20;0.77;;;0.10;99.90;;;;;;6170060;23;20172;-88
2021/11/17 16:07:44;;;;;;;1.57;1.00;;;0.20;99.90;;;;;;6170676;23;20179;-88
2021/11/17 16:10:28;;;;;;;2.10;1.00;;;0.20;99.90;;;;;;6174642;23;20204;-88
2021/11/17 16:13:08;;;;;;;1.43;0.90;;;0.30;99.90;;;;;;6172898;23;20184;-87
2021/11/17 16:15:42;;;;;;;2.47;1.03;;;0.40;99.90;;;;;;6173101;23;20268;-86
2021/11/17 16:18:15;;;;;;;1.77;1.10;;;0.50;99.90;;;;;;6174314;23;20177;-88
2021/11/17 16:20:53;;;;;;;2.50;1.10;;;0.50;99.90;;;;;;6173981;23;20209;-86
2021/11/17 16:26:28;;;;;;;1.23;0.90;;;0.60;99.90;;;;;;6173045;23;20181;-88
2021/11/17 16:29:04;;;;;;;1.30;0.90;;;0.60;99.90;;;;;;6179468;23;20212;-85
2021/11/17 16:31:38;;;;;;;1.17;1.00;;;0.70;99.90;;;;;;6174037;23;20252;-87
2021/11/17 16:34:12;;;;;;;1.60;1.03;;;0.80;99.90;;;;;;6174317;23;20185;-86
2021/11/17 16:36:46;;;;;;;1.20;0.93;;;0.80;99.90;;;;;;6147482;23;20203;-87
2021/11/17 16:39:25;;;;;;;1.23;1.00;;;0.80;99.90;;;;;;6174216;23;20614;-87
2021/11/17 16:41:58;;;;;;;1.97;1.10;;;0.90;99.90;;;;;;6151051;23;20225;-87
2021/11/17 16:44:32;;;;;;;2.23;0.97;;;0.90;99.90;;;;;;6176724;23;20173;-87
2021/11/17 16:47:07;;;;;;;1.87;1.00;;;1.00;99.90;;;;;;6168296;23;20653;-88
2021/11/17 16:49:42;;;;;;;1.77;1.00;;;1.00;99.90;;;;;;6167069;23;20276;-88
2021/11/17 16:52:21;;;;;;;2.70;0.73;;;1.10;99.90;;;;;;6159530;23;20256;-87
2021/11/17 16:54:56;;;;;;;0.70;0.50;;;1.10;99.90;;;;;;6159069;23;20184;-87
2021/11/17 16:57:29;;;;;;;1.50;0.80;;;1.10;99.90;;;;;;6158818;23;20192;-87